createdAt,value
2022-08-26T00:00:59.432Z,4.72
2022-08-26T00:06:00.163Z,4.05
2022-08-26T00:11:00.133Z,3.72
2022-08-26T00:16:04.704Z,4.35
2022-08-26T00:21:08.406Z,3.88
2022-08-26T00:31:13.556Z,3.47
2022-08-26T00:36:22.223Z,4.00
2022-08-26T00:41:24.206Z,3.70
2022-08-26T00:46:36.986Z,4.40
2022-08-26T00:51:49.056Z,3.47
2022-08-26T00:57:03.888Z,5.05
2022-08-26T01:02:03.186Z,3.80
2022-08-26T01:07:02.024Z,3.13
2022-08-26T01:12:02.788Z,3.80
2022-08-26T01:17:06.159Z,3.35
2022-08-26T01:22:11.799Z,3.05
2022-08-26T01:27:14.616Z,4.25
2022-08-26T01:32:17.068Z,4.35
2022-08-26T01:37:21.551Z,4.32
2022-08-26T01:42:27.493Z,3.90
2022-08-26T01:47:30.652Z,3.25
2022-08-26T01:52:31.456Z,3.97
2022-08-26T01:57:31.841Z,3.30
2022-08-26T02:02:44.091Z,4.00
2022-08-26T02:07:42.811Z,3.00
2022-08-26T02:12:42.280Z,2.97
2022-08-26T02:17:44.642Z,2.80
2022-08-26T02:22:45.165Z,2.58
2022-08-26T02:27:46.796Z,3.50
2022-08-26T02:32:51.067Z,2.53
2022-08-26T02:37:50.234Z,2.90
2022-08-26T02:43:05.932Z,2.90
2022-08-26T02:48:18.831Z,2.67
2022-08-26T02:53:25.080Z,3.15
2022-08-26T02:58:26.238Z,3.15
2022-08-26T03:03:28.356Z,2.90
2022-08-26T03:08:32.526Z,3.10
2022-08-26T03:13:43.014Z,3.53
2022-08-26T03:18:41.973Z,3.35
2022-08-26T03:23:48.843Z,2.72
2022-08-26T03:29:13.202Z,3.55
2022-08-26T03:34:21.925Z,2.47
2022-08-26T03:39:35.869Z,3.40
2022-08-26T03:44:43.702Z,2.97
2022-08-26T03:49:44.891Z,3.38
2022-08-26T03:54:47.198Z,2.38
2022-08-26T03:59:52.045Z,3.20
2022-08-26T04:04:50.993Z,3.47
2022-08-26T04:09:59.571Z,3.80
2022-08-26T04:15:02.867Z,2.90
2022-08-26T04:20:05.151Z,3.15
2022-08-26T04:25:06.886Z,3.40
2022-08-26T04:30:09.653Z,2.88
2022-08-26T04:35:09.126Z,3.15
2022-08-26T04:40:10.969Z,2.40
2022-08-26T04:45:16.684Z,2.85
2022-08-26T04:50:23.775Z,4.00
2022-08-26T04:55:38.554Z,4.60
2022-08-26T05:00:41.643Z,2.90
2022-08-26T05:05:47.668Z,2.85
2022-08-26T05:10:55.043Z,3.70
2022-08-26T05:16:07.696Z,3.72
2022-08-26T05:21:23.380Z,4.13
2022-08-26T05:26:32.493Z,3.17
2022-08-26T05:31:36.667Z,3.83
2022-08-26T05:36:37.128Z,3.80
2022-08-26T05:41:45.479Z,3.50
2022-08-26T05:46:48.349Z,3.10
2022-08-26T05:51:52.291Z,3.97
2022-08-26T05:57:01.413Z,3.47
2022-08-26T06:02:00.607Z,3.30
2022-08-26T06:07:00.929Z,3.03
2022-08-26T06:12:01.930Z,3.35
2022-08-26T06:17:19.000Z,2.80
2022-08-26T06:22:38.642Z,3.75
2022-08-26T06:27:40.031Z,3.33
2022-08-26T06:33:01.578Z,2.67
2022-08-26T06:38:04.084Z,3.70
2022-08-26T06:43:10.552Z,2.53
2022-08-26T06:48:30.821Z,3.53
2022-08-26T06:53:34.267Z,3.72
2022-08-26T06:58:40.817Z,3.90
2022-08-26T07:03:51.775Z,4.10
2022-08-26T07:09:09.967Z,4.32
2022-08-26T07:14:15.923Z,4.13
2022-08-26T07:19:29.825Z,3.40
2022-08-26T07:24:39.325Z,3.72
2022-08-26T07:29:45.116Z,3.65
2022-08-26T07:34:49.815Z,3.40
2022-08-26T07:39:50.622Z,4.38
2022-08-26T07:44:50.295Z,3.92
2022-08-26T07:49:55.383Z,3.05
2022-08-26T07:54:59.005Z,3.75
2022-08-26T07:59:59.267Z,3.60
2022-08-26T08:04:59.327Z,4.55
2022-08-26T08:10:09.204Z,3.20
2022-08-26T08:15:26.057Z,3.45
2022-08-26T08:20:30.435Z,4.07
2022-08-26T08:25:29.454Z,10.27
2022-08-26T08:30:37.522Z,4.72
2022-08-26T08:35:45.275Z,4.03
2022-08-26T08:41:01.763Z,4.75
2022-08-26T08:46:14.756Z,3.75
2022-08-26T08:51:45.481Z,4.10
2022-08-26T08:57:02.797Z,3.53
2022-08-26T09:02:18.627Z,4.35
2022-08-26T09:07:36.301Z,4.32
2022-08-26T09:12:36.488Z,3.92
2022-08-26T09:17:59.509Z,3.60
2022-08-26T09:22:59.614Z,3.55
2022-08-26T09:28:01.089Z,3.25
2022-08-26T09:33:10.925Z,3.50
2022-08-26T09:38:29.068Z,4.13
2022-08-26T09:43:29.135Z,3.30
2022-08-26T09:48:36.179Z,3.75
2022-08-26T09:53:53.200Z,2.88
2022-08-26T09:58:57.117Z,3.33
2022-08-26T10:04:18.030Z,3.35
2022-08-26T10:09:18.866Z,2.85
2022-08-26T10:14:24.949Z,3.08
2022-08-26T10:19:55.766Z,3.08
2022-08-26T10:25:04.430Z,2.95
2022-08-26T10:30:10.485Z,2.63
2022-08-26T10:35:11.248Z,2.95
2022-08-26T10:40:18.640Z,3.33
2022-08-26T10:45:47.163Z,3.40
2022-08-26T10:50:54.125Z,3.08
2022-08-26T10:56:19.232Z,4.00
2022-08-26T11:01:41.088Z,3.38
2022-08-26T11:06:46.312Z,2.63
2022-08-26T11:11:53.067Z,3.30
2022-08-26T11:16:55.884Z,3.08
2022-08-26T11:22:22.451Z,3.13
2022-08-26T11:27:41.296Z,3.05
2022-08-26T11:38:43.642Z,3.10
2022-08-26T11:44:11.362Z,3.53
2022-08-26T11:49:13.861Z,5.35
2022-08-26T11:54:29.260Z,3.30
2022-08-26T11:59:40.319Z,3.25
2022-08-26T12:04:41.736Z,3.20
2022-08-26T12:10:00.569Z,3.95
2022-08-26T12:15:18.125Z,3.50
2022-08-26T12:20:31.392Z,2.95
2022-08-26T12:25:36.064Z,4.00
2022-08-26T12:30:36.040Z,4.10
2022-08-26T12:35:35.990Z,3.63
2022-08-26T12:40:45.245Z,3.63
2022-08-26T12:45:58.580Z,5.40
2022-08-26T12:50:56.830Z,3.60
2022-08-26T12:56:00.303Z,3.60
2022-08-26T13:01:25.322Z,3.28
2022-08-26T13:06:22.788Z,3.47
2022-08-26T13:11:41.043Z,3.75
2022-08-26T13:16:43.332Z,3.38
2022-08-26T13:21:53.882Z,3.05
2022-08-26T13:26:52.877Z,3.80
2022-08-26T13:31:52.259Z,3.70
2022-08-26T13:36:59.453Z,3.88
2022-08-26T13:42:03.326Z,3.83
2022-08-26T13:47:05.524Z,4.00
2022-08-26T13:52:09.875Z,3.90
2022-08-26T13:57:10.734Z,6.32
2022-08-26T14:02:14.087Z,6.00
2022-08-26T14:07:12.018Z,3.60
2022-08-26T14:12:22.837Z,4.40
2022-08-26T14:17:25.130Z,4.17
2022-08-26T14:22:24.651Z,4.90
2022-08-26T14:27:33.258Z,4.78
2022-08-26T14:32:34.164Z,6.50
2022-08-26T14:37:39.326Z,4.60
2022-08-26T14:42:41.994Z,4.10
2022-08-26T14:53:00.666Z,3.33
2022-08-26T14:58:00.582Z,3.85
2022-08-26T15:03:00.131Z,4.20
2022-08-26T15:08:05.249Z,4.07
2022-08-26T15:13:07.256Z,4.65
2022-08-26T15:18:13.692Z,4.82
2022-08-26T15:23:13.465Z,4.97
2022-08-26T15:28:15.211Z,3.75
2022-08-26T15:33:19.960Z,3.58
2022-08-26T15:38:21.632Z,4.47
2022-08-26T15:43:28.944Z,3.80
2022-08-26T15:48:29.477Z,4.20
2022-08-26T15:53:43.157Z,4.68
2022-08-26T15:58:43.693Z,4.00
2022-08-26T16:03:46.270Z,4.47
2022-08-26T16:08:50.079Z,4.68
2022-08-26T16:18:52.626Z,5.28
2022-08-26T16:23:52.055Z,6.50
2022-08-26T16:28:50.742Z,6.35
2022-08-26T16:33:51.628Z,5.85
2022-08-26T16:38:54.811Z,5.68
2022-08-26T16:49:29.156Z,7.95
2022-08-26T16:54:41.597Z,6.43
2022-08-26T16:59:49.176Z,6.13
2022-08-26T17:04:50.211Z,6.45
2022-08-26T17:09:54.550Z,6.03
2022-08-26T17:14:53.158Z,5.57
2022-08-26T17:19:54.941Z,6.63
2022-08-26T17:24:56.659Z,11.10
2022-08-26T17:30:00.000Z,10.43
2022-08-26T17:34:59.125Z,13.48
2022-08-26T17:39:57.224Z,14.18
2022-08-26T17:44:56.357Z,11.15
2022-08-26T17:49:56.863Z,9.82
2022-08-26T17:54:58.241Z,9.90
2022-08-26T18:00:05.816Z,9.65
2022-08-26T18:05:06.804Z,18.67
2022-08-26T18:10:09.100Z,20.92
2022-08-26T18:15:25.178Z,16.52
2022-08-26T18:20:25.952Z,18.73
2022-08-26T18:25:31.002Z,17.55
2022-08-26T18:30:35.486Z,14.50
2022-08-26T18:35:48.904Z,11.95
2022-08-26T18:40:49.965Z,8.80
2022-08-26T18:45:53.119Z,5.90
2022-08-26T18:50:55.040Z,6.85
2022-08-26T18:55:57.877Z,6.72
2022-08-26T19:00:56.354Z,7.27
2022-08-26T19:05:54.018Z,7.07
2022-08-26T19:10:55.177Z,6.22
2022-08-26T19:15:56.144Z,7.20
2022-08-26T19:20:55.080Z,7.05
2022-08-26T19:25:56.512Z,7.25
2022-08-26T19:30:55.258Z,7.32
2022-08-26T19:35:53.965Z,5.85
2022-08-26T19:40:54.072Z,6.78
2022-08-26T19:45:52.686Z,4.50
2022-08-26T19:50:51.894Z,6.40
2022-08-26T19:55:52.851Z,5.32
2022-08-26T20:05:58.445Z,6.78
2022-08-26T20:11:00.749Z,6.22
2022-08-26T20:16:04.747Z,5.18
2022-08-26T20:21:30.282Z,7.18
2022-08-26T20:26:39.862Z,4.88
2022-08-26T20:31:46.039Z,5.45
2022-08-26T20:36:49.330Z,5.18
2022-08-26T20:41:51.144Z,5.90
2022-08-26T20:46:50.331Z,5.78
2022-08-26T20:51:52.841Z,5.50
2022-08-26T20:56:53.062Z,6.03
2022-08-26T21:01:53.292Z,5.25
2022-08-26T21:06:53.163Z,5.68
2022-08-26T21:11:53.175Z,5.32
2022-08-26T21:16:52.516Z,3.85
2022-08-26T21:21:51.465Z,5.88
2022-08-26T21:26:50.339Z,5.53
2022-08-26T21:31:49.497Z,5.68
2022-08-26T21:36:48.752Z,5.78
2022-08-26T21:41:47.460Z,5.97
2022-08-26T21:46:46.695Z,5.78
2022-08-26T21:51:47.136Z,8.10
2022-08-26T21:56:47.170Z,7.22
2022-08-26T22:01:46.697Z,5.65
2022-08-26T22:06:49.854Z,6.43
2022-08-26T22:11:49.996Z,5.97
2022-08-26T22:16:52.166Z,7.05
2022-08-26T22:21:51.835Z,6.05
2022-08-26T22:26:50.786Z,6.53
2022-08-26T22:31:50.354Z,5.68
2022-08-26T22:36:53.102Z,7.00
2022-08-26T22:41:52.600Z,6.47
2022-08-26T22:46:55.896Z,5.93
2022-08-26T22:51:55.465Z,5.47
2022-08-26T22:56:59.459Z,6.25
2022-08-26T23:02:02.043Z,6.40
2022-08-26T23:07:03.670Z,6.40
2022-08-26T23:12:07.549Z,6.90
2022-08-26T23:17:11.009Z,7.30
2022-08-26T23:22:13.303Z,7.03
2022-08-26T23:27:14.362Z,6.75
2022-08-26T23:32:13.273Z,7.20
2022-08-26T23:37:12.892Z,6.85
2022-08-26T23:42:12.855Z,7.50
2022-08-26T23:47:14.605Z,7.25
2022-08-26T23:52:32.550Z,7.10
2022-08-26T23:57:34.955Z,7.20
